createdAt,value
2022-12-23T00:00:44.489Z,98171.00
2022-12-23T00:06:23.624Z,98165.00
2022-12-23T00:09:01.029Z,98172.00
2022-12-23T00:11:45.560Z,98164.00
2022-12-23T00:14:42.499Z,98173.00
2022-12-23T00:17:28.606Z,98189.00
2022-12-23T00:19:58.103Z,98191.00
2022-12-23T00:22:45.195Z,98202.00
2022-12-23T00:26:06.638Z,98185.00
2022-12-23T00:29:04.671Z,98191.00
2022-12-23T00:31:40.888Z,98187.00
2022-12-23T00:34:47.607Z,98195.00
2022-12-23T00:37:27.739Z,98199.00
2022-12-23T00:40:29.225Z,98206.00
2022-12-23T00:43:14.316Z,98204.00
2022-12-23T00:46:16.976Z,98199.00
2022-12-23T00:49:15.000Z,98192.00
2022-12-23T00:52:05.463Z,98203.00
2022-12-23T00:57:25.421Z,98204.00
2022-12-23T01:00:02.967Z,98210.00
2022-12-23T01:02:53.264Z,98216.00
2022-12-23T01:05:46.228Z,98223.00
2022-12-23T01:08:31.919Z,98221.00
2022-12-23T01:11:19.700Z,98216.00
2022-12-23T01:13:59.855Z,98217.00
2022-12-23T01:17:00.833Z,98221.00
2022-12-23T01:19:43.341Z,98235.00
2022-12-23T01:22:27.851Z,98241.00
2022-12-23T01:25:04.478Z,98235.00
2022-12-23T01:27:57.966Z,98232.00
2022-12-23T01:30:30.777Z,98246.00
2022-12-23T01:33:20.591Z,98250.00
2022-12-23T01:36:23.591Z,98256.00
2022-12-23T01:42:18.976Z,98249.00
2022-12-23T01:48:43.713Z,98255.00
2022-12-23T01:51:57.216Z,98241.00
2022-12-23T01:54:51.012Z,98258.00
2022-12-23T01:57:31.641Z,98273.00
2022-12-23T02:00:17.414Z,98268.00
2022-12-23T02:03:20.820Z,98261.00
2022-12-23T02:06:03.015Z,98275.00
2022-12-23T02:08:51.364Z,98289.00
2022-12-23T02:12:38.340Z,98304.00
2022-12-23T02:16:05.207Z,98307.00
2022-12-23T02:19:12.701Z,98305.00
2022-12-23T02:22:39.329Z,98327.00
2022-12-23T02:25:36.663Z,98327.00
2022-12-23T02:28:53.599Z,98328.00
2022-12-23T02:32:14.031Z,98336.00
2022-12-23T02:35:32.588Z,98335.00
2022-12-23T02:38:29.759Z,98341.00
2022-12-23T02:41:37.374Z,98346.00
2022-12-23T02:47:27.366Z,98343.00
2022-12-23T02:50:20.238Z,98347.00
2022-12-23T02:52:53.999Z,98338.00
2022-12-23T02:55:40.483Z,98347.00
2022-12-23T02:58:48.238Z,98355.00
2022-12-23T03:01:49.603Z,98356.00
2022-12-23T03:04:30.926Z,98358.00
2022-12-23T03:07:37.972Z,98355.00
2022-12-23T03:11:18.579Z,98376.00
2022-12-23T03:14:28.890Z,98374.00
2022-12-23T03:17:49.704Z,98369.00
2022-12-23T03:20:33.331Z,98381.00
2022-12-23T03:23:55.029Z,98368.00
2022-12-23T03:27:09.110Z,98371.00
2022-12-23T03:33:17.362Z,98366.00
2022-12-23T03:36:10.506Z,98356.00
2022-12-23T03:38:57.572Z,98365.00
2022-12-23T03:41:43.697Z,98368.00
2022-12-23T03:44:37.126Z,98366.00
2022-12-23T03:47:50.043Z,98363.00
2022-12-23T03:50:26.849Z,98374.00
2022-12-23T03:53:16.767Z,98379.00
2022-12-23T03:56:18.132Z,98368.00
2022-12-23T03:58:59.311Z,98371.00
2022-12-23T04:02:29.095Z,98375.00
2022-12-23T04:05:44.666Z,98373.00
2022-12-23T04:08:28.755Z,98366.00
2022-12-23T04:11:43.677Z,98386.00
2022-12-23T04:14:47.244Z,98381.00
2022-12-23T04:17:31.526Z,98389.00
2022-12-23T04:20:09.235Z,98394.00
2022-12-23T04:22:47.189Z,98395.00
2022-12-23T04:25:23.236Z,98391.00
2022-12-23T04:27:53.565Z,98390.00
2022-12-23T04:30:34.687Z,98394.00
2022-12-23T04:33:06.959Z,98395.00
2022-12-23T04:35:34.031Z,98389.00
2022-12-23T04:38:11.366Z,98395.00
2022-12-23T04:41:12.806Z,98418.00
2022-12-23T04:43:57.452Z,98407.00
2022-12-23T04:46:24.631Z,98399.00
2022-12-23T04:49:15.305Z,98390.00
2022-12-23T04:52:06.232Z,98395.00
2022-12-23T04:54:46.516Z,98405.00
2022-12-23T04:57:43.896Z,98394.00
2022-12-23T05:00:27.036Z,98393.00
2022-12-23T05:03:10.519Z,98397.00
2022-12-23T05:06:11.414Z,98403.00
2022-12-23T05:08:58.378Z,98404.00
2022-12-23T05:11:42.134Z,98401.00
2022-12-23T05:14:17.460Z,98399.00
2022-12-23T05:20:27.505Z,98410.00
2022-12-23T05:23:00.564Z,98403.00
2022-12-23T05:25:51.541Z,98416.00
2022-12-23T05:28:39.930Z,98413.00
2022-12-23T05:31:47.614Z,98415.00
2022-12-23T05:34:58.684Z,98411.00
2022-12-23T05:40:24.519Z,98416.00
2022-12-23T05:42:58.527Z,98419.00
2022-12-23T05:45:35.829Z,98424.00
2022-12-23T05:48:13.551Z,98426.00
2022-12-23T05:51:29.822Z,98423.00
2022-12-23T05:54:27.713Z,98417.00
2022-12-23T05:57:15.037Z,98405.00
2022-12-23T06:00:03.749Z,98414.00
2022-12-23T06:02:54.810Z,98412.00
2022-12-23T06:05:52.429Z,98407.00
2022-12-23T06:08:25.261Z,98400.00
2022-12-23T06:10:59.772Z,98401.00
2022-12-23T06:13:51.123Z,98395.00
2022-12-23T06:16:25.811Z,98407.00
2022-12-23T06:19:12.469Z,98393.00
2022-12-23T06:22:11.574Z,98405.00
2022-12-23T06:24:59.895Z,98397.00
2022-12-23T06:27:45.972Z,98403.00
2022-12-23T06:30:50.097Z,98398.00
2022-12-23T06:33:41.585Z,98403.00
2022-12-23T06:36:16.938Z,98400.00
2022-12-23T06:38:44.039Z,98401.00
2022-12-23T06:41:11.551Z,98399.00
2022-12-23T06:43:38.443Z,98409.00
2022-12-23T06:46:05.616Z,98402.00
2022-12-23T06:51:55.876Z,98403.00
2022-12-23T06:54:42.494Z,98396.00
2022-12-23T06:57:29.526Z,98402.00
2022-12-23T07:00:03.343Z,98403.00
2022-12-23T07:02:30.444Z,98405.00
2022-12-23T07:05:02.794Z,98410.00
2022-12-23T07:07:32.924Z,98425.00
2022-12-23T07:10:07.286Z,98427.00
2022-12-23T07:12:38.599Z,98427.00
2022-12-23T07:15:23.723Z,98429.00
2022-12-23T07:18:19.662Z,98446.00
2022-12-23T07:20:48.621Z,98444.00
2022-12-23T07:23:15.858Z,98449.00
2022-12-23T07:25:42.955Z,98456.00
2022-12-23T07:28:18.479Z,98449.00
2022-12-23T07:30:49.728Z,98463.00
2022-12-23T07:33:52.882Z,98452.00
2022-12-23T07:36:25.793Z,98451.00
2022-12-23T07:41:34.154Z,98464.00
2022-12-23T07:44:28.866Z,98459.00
2022-12-23T07:50:09.455Z,98453.00
2022-12-23T07:53:07.419Z,98445.00
2022-12-23T07:56:17.584Z,98448.00
2022-12-23T07:58:48.747Z,98452.00
2022-12-23T08:01:33.002Z,98446.00
2022-12-23T08:04:23.313Z,98440.00
2022-12-23T08:07:06.173Z,98455.00
2022-12-23T08:09:52.231Z,98450.00
2022-12-23T08:12:48.487Z,98460.00
2022-12-23T08:15:37.368Z,98449.00
2022-12-23T08:18:14.222Z,98448.00
2022-12-23T08:20:50.992Z,98435.00
2022-12-23T08:23:24.424Z,98447.00
2022-12-23T08:26:58.600Z,98430.00
2022-12-23T08:29:56.505Z,98444.00
2022-12-23T08:33:14.344Z,98442.00
2022-12-23T08:35:41.247Z,98445.00
2022-12-23T08:38:08.140Z,98440.00
2022-12-23T08:40:35.039Z,98436.00
2022-12-23T08:43:38.387Z,98442.00
2022-12-23T08:49:29.634Z,98450.00
2022-12-23T08:52:32.544Z,98454.00
2022-12-23T08:55:18.386Z,98457.00
2022-12-23T08:58:21.568Z,98454.00
2022-12-23T09:01:14.460Z,98459.00
2022-12-23T09:04:26.455Z,98451.00
2022-12-23T09:07:00.162Z,98449.00
2022-12-23T09:09:44.647Z,98434.00
2022-12-23T09:13:12.235Z,98433.00
2022-12-23T09:15:56.693Z,98450.00
2022-12-23T09:18:56.848Z,98445.00
2022-12-23T09:25:05.843Z,98440.00
2022-12-23T09:27:57.466Z,98445.00
2022-12-23T09:33:53.167Z,98433.00
2022-12-23T09:37:12.057Z,98443.00
2022-12-23T09:40:13.570Z,98428.00
2022-12-23T09:44:03.375Z,98447.00
2022-12-23T09:47:21.633Z,98437.00
2022-12-23T09:55:07.124Z,98427.00
2022-12-23T10:09:26.683Z,98397.00
2022-12-23T10:12:46.791Z,98392.00
2022-12-23T10:16:07.055Z,98386.00
2022-12-23T10:23:40.164Z,98395.00
2022-12-23T10:44:52.320Z,98355.00
2022-12-23T10:49:24.517Z,98342.00
2022-12-23T10:52:38.991Z,98347.00
2022-12-23T10:56:17.049Z,98329.00
2022-12-23T10:58:55.288Z,98328.00
2022-12-23T11:14:09.899Z,98311.00
2022-12-23T11:17:16.827Z,98307.00
2022-12-23T11:24:43.250Z,98303.00
2022-12-23T11:28:08.467Z,98308.00
2022-12-23T11:31:18.472Z,98295.00
2022-12-23T11:38:02.277Z,98289.00
2022-12-23T11:41:14.522Z,98292.00
2022-12-23T11:44:21.131Z,98288.00
2022-12-23T11:47:17.603Z,98281.00
2022-12-23T11:56:49.092Z,98280.00
2022-12-23T11:59:33.305Z,98272.00
2022-12-23T12:02:05.429Z,98265.00
2022-12-23T12:05:48.823Z,98256.00
2022-12-23T12:09:08.964Z,98253.00
2022-12-23T12:12:54.820Z,98240.00
2022-12-23T12:20:28.644Z,98234.00
2022-12-23T12:23:43.904Z,98224.00
2022-12-23T12:27:03.406Z,98224.00
2022-12-23T12:30:13.902Z,98218.00
2022-12-23T12:33:05.327Z,98216.00
2022-12-23T12:35:53.411Z,98205.00
2022-12-23T12:38:33.287Z,98200.00
2022-12-23T12:41:22.792Z,98212.00
2022-12-23T12:44:27.993Z,98193.00
2022-12-23T12:47:21.843Z,98191.00
2022-12-23T12:50:02.918Z,98181.00
2022-12-23T12:52:37.665Z,98185.00
2022-12-23T12:55:25.445Z,98167.00
2022-12-23T12:57:52.482Z,98166.00
2022-12-23T13:00:23.659Z,98156.00
2022-12-23T13:03:57.188Z,98163.00
2022-12-23T13:11:36.024Z,98182.00
2022-12-23T13:18:58.087Z,98174.00
2022-12-23T13:26:43.595Z,98166.00
2022-12-23T13:36:51.131Z,98169.00
2022-12-23T13:40:37.809Z,98154.00
2022-12-23T13:45:11.708Z,98158.00
2022-12-23T13:49:15.192Z,98165.00
2022-12-23T13:52:32.310Z,98167.00
2022-12-23T13:56:47.338Z,98168.00
2022-12-23T13:59:51.853Z,98181.00
2022-12-23T14:03:36.964Z,98195.00
2022-12-23T14:07:03.037Z,98206.00
2022-12-23T14:10:33.232Z,98207.00
2022-12-23T14:13:59.223Z,98220.00
2022-12-23T14:28:38.382Z,98235.00
2022-12-23T14:32:21.084Z,98255.00
2022-12-23T14:36:05.862Z,98235.00
2022-12-23T14:42:39.842Z,98235.00
2022-12-23T14:53:05.089Z,98218.00
2022-12-23T14:55:32.833Z,98228.00
2022-12-23T14:58:08.734Z,98247.00
2022-12-23T15:01:00.782Z,98235.00
2022-12-23T15:10:40.727Z,98252.00
2022-12-23T15:14:16.243Z,98241.00
2022-12-23T15:23:49.474Z,98235.00
2022-12-23T15:27:27.076Z,98226.00
2022-12-23T15:31:20.279Z,98226.00
2022-12-23T15:34:50.238Z,98243.00
2022-12-23T15:38:14.956Z,98223.00
2022-12-23T15:41:43.596Z,98224.00
2022-12-23T15:44:54.879Z,98235.00
2022-12-23T15:47:47.805Z,98227.00
2022-12-23T15:50:41.787Z,98233.00
2022-12-23T15:53:42.607Z,98230.00
2022-12-23T15:56:59.751Z,98229.00
2022-12-23T15:59:37.632Z,98226.00
2022-12-23T16:02:59.827Z,98209.00
2022-12-23T16:05:45.050Z,98231.00
2022-12-23T16:08:30.269Z,98231.00
2022-12-23T16:11:26.686Z,98227.00
2022-12-23T16:14:08.508Z,98208.00
2022-12-23T16:17:15.212Z,98221.00
2022-12-23T16:21:25.303Z,98236.00
2022-12-23T16:27:00.850Z,98222.00
2022-12-23T16:29:28.877Z,98227.00
2022-12-23T16:32:32.812Z,98238.00
2022-12-23T16:36:03.130Z,98238.00
2022-12-23T16:42:28.505Z,98246.00
2022-12-23T16:45:44.195Z,98241.00
2022-12-23T16:49:15.059Z,98244.00
2022-12-23T16:51:42.535Z,98229.00
2022-12-23T16:54:19.379Z,98232.00
2022-12-23T16:56:47.008Z,98221.00
2022-12-23T16:59:14.659Z,98239.00
2022-12-23T17:01:49.308Z,98234.00
2022-12-23T17:04:16.393Z,98230.00
2022-12-23T17:06:52.869Z,98231.00
2022-12-23T17:09:20.811Z,98229.00
2022-12-23T17:11:53.017Z,98222.00
2022-12-23T17:14:25.343Z,98221.00
2022-12-23T17:16:52.880Z,98229.00
2022-12-23T17:19:28.017Z,98234.00
2022-12-23T17:22:21.905Z,98248.00
2022-12-23T17:24:48.984Z,98249.00
2022-12-23T17:27:20.602Z,98237.00
2022-12-23T17:29:47.757Z,98235.00
2022-12-23T17:32:18.134Z,98238.00
2022-12-23T17:34:46.228Z,98232.00
2022-12-23T17:37:15.937Z,98227.00
2022-12-23T17:39:44.402Z,98229.00
2022-12-23T17:42:24.968Z,98256.00
2022-12-23T17:44:52.712Z,98268.00
2022-12-23T17:47:22.556Z,98269.00
2022-12-23T17:49:50.134Z,98269.00
2022-12-23T17:52:19.455Z,98278.00
2022-12-23T17:54:48.679Z,98244.00
2022-12-23T17:57:26.353Z,98278.00
2022-12-23T17:59:54.720Z,98281.00
2022-12-23T18:02:26.166Z,98272.00
2022-12-23T18:04:56.522Z,98258.00
2022-12-23T18:07:44.578Z,98283.00
2022-12-23T18:10:16.565Z,98294.00
2022-12-23T18:12:51.767Z,98307.00
2022-12-23T18:23:01.774Z,98312.00
2022-12-23T18:25:28.806Z,98312.00
2022-12-23T18:27:55.727Z,98298.00
2022-12-23T18:30:25.691Z,98315.00
2022-12-23T18:32:52.703Z,98307.00
2022-12-23T18:35:32.336Z,98325.00
2022-12-23T18:38:00.502Z,98335.00
2022-12-23T18:40:32.980Z,98327.00
2022-12-23T18:43:00.661Z,98311.00
2022-12-23T18:45:41.783Z,98337.00
2022-12-23T18:48:10.084Z,98357.00
2022-12-23T18:50:39.797Z,98348.00
2022-12-23T18:53:21.305Z,98348.00
2022-12-23T18:55:51.994Z,98361.00
2022-12-23T18:58:19.672Z,98356.00
2022-12-23T19:00:47.748Z,98359.00
2022-12-23T19:03:29.694Z,98374.00
2022-12-23T19:06:06.637Z,98387.00
2022-12-23T19:08:36.090Z,98394.00
2022-12-23T19:11:20.550Z,98410.00
2022-12-23T19:13:47.720Z,98405.00
2022-12-23T19:16:18.370Z,98424.00
2022-12-23T19:18:47.201Z,98415.00
2022-12-23T19:21:14.769Z,98395.00
2022-12-23T19:23:42.378Z,98444.00
2022-12-23T19:26:15.119Z,98450.00
2022-12-23T19:28:42.138Z,98423.00
2022-12-23T19:31:14.767Z,98440.00
2022-12-23T19:33:45.312Z,98434.00
2022-12-23T19:36:19.291Z,98440.00
2022-12-23T19:38:46.544Z,98443.00
2022-12-23T19:41:13.424Z,98447.00
2022-12-23T19:43:43.785Z,98445.00
2022-12-23T19:46:12.710Z,98461.00
2022-12-23T19:48:40.415Z,98449.00
2022-12-23T19:51:35.568Z,98467.00
2022-12-23T19:54:03.858Z,98460.00
2022-12-23T19:56:32.570Z,98465.00
2022-12-23T19:58:59.397Z,98471.00
2022-12-23T20:01:27.397Z,98471.00
2022-12-23T20:03:56.495Z,98481.00
2022-12-23T20:06:33.776Z,98484.00
2022-12-23T20:09:04.321Z,98493.00
2022-12-23T20:11:38.561Z,98507.00
2022-12-23T20:14:06.639Z,98508.00
2022-12-23T20:16:34.642Z,98521.00
2022-12-23T20:19:01.986Z,98545.00
2022-12-23T20:21:29.420Z,98535.00
2022-12-23T20:23:56.716Z,98555.00
2022-12-23T20:26:23.934Z,98566.00
2022-12-23T20:28:51.360Z,98568.00
2022-12-23T20:31:24.621Z,98561.00
2022-12-23T20:33:55.614Z,98567.00
2022-12-23T20:36:30.268Z,98573.00
2022-12-23T20:38:58.054Z,98569.00
2022-12-23T20:41:53.543Z,98566.00
2022-12-23T20:44:37.291Z,98574.00
2022-12-23T20:47:06.501Z,98582.00
2022-12-23T20:49:33.870Z,98584.00
2022-12-23T20:52:01.461Z,98575.00
2022-12-23T20:54:33.142Z,98585.00
2022-12-23T20:57:02.609Z,98583.00
2022-12-23T20:59:29.592Z,98561.00
2022-12-23T21:01:59.269Z,98561.00
2022-12-23T21:04:26.953Z,98558.00
2022-12-23T21:06:53.981Z,98556.00
2022-12-23T21:09:21.052Z,98551.00
2022-12-23T21:11:51.685Z,98549.00
2022-12-23T21:14:20.850Z,98544.00
2022-12-23T21:16:50.706Z,98539.00
2022-12-23T21:19:23.551Z,98547.00
2022-12-23T21:21:51.914Z,98548.00
2022-12-23T21:24:20.373Z,98548.00
2022-12-23T21:26:55.641Z,98557.00
2022-12-23T21:30:08.750Z,98577.00
2022-12-23T21:32:45.225Z,98584.00
2022-12-23T21:39:08.960Z,98581.00
2022-12-23T21:45:29.328Z,98585.00
2022-12-23T21:48:17.321Z,98589.00
2022-12-23T21:51:33.313Z,98621.00
2022-12-23T21:58:01.249Z,98643.00
2022-12-23T22:04:55.364Z,98651.00
2022-12-23T22:07:22.044Z,98659.00
2022-12-23T22:09:48.927Z,98663.00
2022-12-23T22:12:15.891Z,98668.00
2022-12-23T22:15:35.699Z,98668.00
2022-12-23T22:18:30.312Z,98666.00
2022-12-23T22:24:55.600Z,98667.00
2022-12-23T22:28:06.529Z,98656.00
2022-12-23T22:38:27.792Z,98641.00
2022-12-23T22:41:45.515Z,98643.00
2022-12-23T22:47:51.999Z,98644.00
2022-12-23T22:51:07.082Z,98647.00
2022-12-23T23:10:17.484Z,98677.00
2022-12-23T23:13:12.304Z,98695.00
2022-12-23T23:19:18.328Z,98696.00
2022-12-23T23:22:10.569Z,98699.00
2022-12-23T23:28:42.237Z,98693.00
2022-12-23T23:35:05.521Z,98681.00
2022-12-23T23:42:59.423Z,98707.00
2022-12-23T23:44:55.842Z,98716.00
2022-12-23T23:47:59.221Z,98720.00
2022-12-23T23:51:00.364Z,98726.00
2022-12-23T23:54:24.663Z,98716.00
